首页
METAR-TAF:

METAR-TAF

机场 :

朗維尤, 得克萨斯州, 美国

纬度: 32-23-26N, 经度: 094-42-50W, 海拔: 111米

当前天气观测

该预报发布于1小时和6分钟前的12:53 UTC
静风
温度 24°C
湿度 89%
气压 1017 hPa
能見度: 16.1公里
少量云层高于4400英尺
多云层高于7000英尺
阴天层高于8500英尺

METAR: KGGG 181253Z 00000KT 10SM FEW044 BKN070 OVC085 24/22 A3004 RMK AO2 SLP167 T02390222

时间: 08:59 (13:59 UTC)

预报

该预报发布于2小时和14分钟前的11:45 UTC
预报有效从18日的 12点(UTC)到 19日的 12点(UTC)
风速3节,风向多变
能見度: 10公里
散云层高于5000英尺
多云层高于10000英尺
多云层高于25000英尺
附近有阵雨
从 18日的 1500点(UTC)
风速5节,风向东北
能見度: 8.0公里
多云层高于3000英尺, 积雨云.
阴天层高于6000英尺
小阵雨, 附近有雷暴
从 18日的 2100点(UTC)
风速5节,风向东北
能見度: 10公里
阴天层高于3500英尺
附近有阵雨
从 19日的 0000点(UTC)
风速4节,风向北转东北
能見度: 10公里
多云层高于4500英尺

TAF: KGGG 181145Z 1812/1912 VRB03KT P6SM VCSH SCT050 BKN100 BKN250 FM181500 04005KT 5SM -SHRA VCTS BKN030CB OVC060 FM182100 04005KT P6SM VCSH OVC035 FM190000 03004KT P6SM BKN045

超过4000个机场的气象观测和天气预报(METAR&TAF报告)。

可查询的气象台以黄色和红色小点在地图上表示。

将鼠标移到小点上方,可查看气象台名称。

然后点击查看天气观测和预报。

如需切换地图:点击带黑十字的绿色按钮放大地图;点击带横线的绿色按钮缩小地图;或者点击绿色箭头查看邻近地区的地图。


METAR-TAF: